Crescent Beach, FL

3:48 PM EST on January 28, 2015 (GMT -0500)
Whitted | Change Station
CLOSE
Current Station
Airport
Location: St. Petersburg,
Elevation: 7 ft
Nearby Weather Stations

Elev 7 ft 27.77 °N, 82.63 °W | Updated 55 minutes ago

Clear
Clear
60 °F
Feels Like 60 °F
N
13
Wind Variable Wind from NNE

Today
High -- | Low -- °F
--% Chance of Precip.
Yesterday
High -- | Low -- °F
Precip. -- in
7:18 AM 6:08 PM
Waxing Gibbous, 67% visible
Pressure 30.17 in
Visibility 10.0 miles
Clouds Clear
Dew Point 34 °F
Humidity 38%
Rainfall 0.00 in
Snow Depth Not available.
UV 5 out of 12
Pollen 10.20 out of 12
Air Quality Not available.
Flu Activity Not available.
METAR KSPG 281953Z 02011KT 10SM CLR 16/01 A3017 RMK AO2 SLP215 T01560011

More Conditions Fewer Conditions

Pressure 30.17 in
Visibility 10.0 miles
Clouds Clear
Dew Point 34 °F
Humidity 38%
Rainfall 0.00 in
Snow Depth Not available.
UV 5 out of 12
Pollen 10.20 out of 12
Air Quality Not available.
Flu Activity Not available.
METAR KSPG 281953Z 02011KT 10SM CLR 16/01 A3017 RMK AO2 SLP215 T01560011

More Conditions Fewer Conditions

10-Day Weather Forecast

Almanac

Astronomy

Jan. 28, 2015 Rise Set
Actual Time
Civil Twilight
Nautical Twilight
Astronomical Twilight
Moon
Length of Visible Light
Length of Day
Tomorrow will be .
, % of the Moon is Illuminated

Today's Extremes

State Highs State Lows

Community

WunderPhotos

Upload Photos

1,791,252 photos uploaded!

WunderBlogs® & News

Nearby

Air Quality

  Air Quality AQ Index Pollutant
Not available.

Snow Depth

Station Depth Elevation

Earthquake Activity

City Distance Mag. Time & Date
Minimum magnitude displayed is 2.5.

Coastal Water Temperatures

Place Temperature

Nearby Weather Stations